PACV METAR and TAF weather

Enter ICAO airport designator
Station Type Date Time Source
PACV METAR 2019/08/22 14:53 UTC NOAA

PACV 221453Z 00000KT 6SM HZ FEW043 06/04 A2975 RMK AO2 SLP075 T00560039 58006


Station Type Date Time Source
PACV Decoded METAR 2019/08/22 14:53 UTC NOAA

Station name not available
Aug 22, 2019 - 10:53 AM EDT / 2019.08.22 1453 UTC
Wind: Calm:0
Visibility: 6 mile(s):0
Sky conditions: mostly clear
Weather: haze
Temperature: 42.1 F (5.6 C)
Dew Point: 39.0 F (3.9 C)
Relative Humidity: 88%
Pressure (altimeter): 29.75 in. Hg (1007 hPa)
Pressure tendency: 0.02 inches (0.6 hPa) lower than three hours ago
ob: PACV 221453Z 00000KT 6SM HZ FEW043 06/04 A2975 RMK AO2 SLP075 T00560039 58006
cycle: 15

Station Type Date Time Source
PACV TAF 2019/08/22 12:24 UTC NOAA

TAF PACV 221121Z 2212/2312 09006KT P6SM SCT200

Example: see airport list